createdAt,value
2023-02-15T00:00:09.297Z,43.13
2023-02-15T00:02:58.626Z,42.99
2023-02-15T00:05:49.276Z,43.10
2023-02-15T00:08:38.483Z,43.58
2023-02-15T00:11:43.774Z,43.99
2023-02-15T00:14:33.117Z,43.81
2023-02-15T00:17:23.977Z,44.04
2023-02-15T00:20:13.705Z,44.44
2023-02-15T00:23:04.379Z,44.62
2023-02-15T00:25:53.569Z,44.09
2023-02-15T00:28:42.822Z,44.11
2023-02-15T00:31:34.014Z,43.68
2023-02-15T00:34:27.876Z,43.51
2023-02-15T00:37:19.834Z,43.73
2023-02-15T00:40:12.963Z,43.84
2023-02-15T00:43:02.499Z,42.80
2023-02-15T00:45:51.918Z,42.94
2023-02-15T00:48:41.325Z,44.31
2023-02-15T00:51:31.158Z,45.19
2023-02-15T00:54:20.680Z,45.22
2023-02-15T00:57:11.315Z,45.16
2023-02-15T01:00:00.606Z,45.42
2023-02-15T01:02:49.915Z,45.68
2023-02-15T01:05:39.248Z,45.58
2023-02-15T01:08:28.688Z,45.63
2023-02-15T01:11:23.375Z,45.73
2023-02-15T01:14:15.667Z,45.54
2023-02-15T01:17:04.894Z,45.55
2023-02-15T01:19:57.904Z,45.92
2023-02-15T01:22:47.279Z,45.85
2023-02-15T01:25:38.215Z,46.07
2023-02-15T01:28:27.547Z,46.44
2023-02-15T01:31:22.553Z,47.79
2023-02-15T01:34:11.817Z,48.29
2023-02-15T01:37:01.919Z,49.09
2023-02-15T01:39:51.233Z,49.55
2023-02-15T01:42:41.470Z,49.87
2023-02-15T01:45:33.245Z,50.53
2023-02-15T01:48:29.000Z,50.64
2023-02-15T01:51:25.515Z,50.01
2023-02-15T01:54:25.663Z,50.03
2023-02-15T01:57:20.353Z,49.81
2023-02-15T02:00:11.387Z,49.83
2023-02-15T02:03:05.877Z,50.09
2023-02-15T02:05:56.455Z,50.25
2023-02-15T02:08:47.755Z,50.37
2023-02-15T02:11:37.845Z,50.58
2023-02-15T02:14:28.131Z,50.79
2023-02-15T02:17:24.367Z,53.25
2023-02-15T02:21:06.833Z,53.78
2023-02-15T02:24:47.999Z,53.88
2023-02-15T02:27:42.652Z,54.48
2023-02-15T02:31:10.950Z,55.31
2023-02-15T02:34:07.592Z,54.96
2023-02-15T02:37:03.689Z,55.04
2023-02-15T02:40:03.435Z,55.76
2023-02-15T02:43:04.174Z,57.04
2023-02-15T02:46:00.710Z,56.79
2023-02-15T02:48:51.581Z,56.85
2023-02-15T02:51:42.579Z,57.11
2023-02-15T02:54:35.432Z,56.95
2023-02-15T02:57:26.623Z,57.11
2023-02-15T03:00:17.977Z,56.78
2023-02-15T03:03:15.938Z,57.43
2023-02-15T03:06:12.584Z,57.06
2023-02-15T03:09:08.208Z,58.20
2023-02-15T03:11:57.639Z,58.68
2023-02-15T03:14:51.039Z,58.74
2023-02-15T03:17:44.932Z,59.36
2023-02-15T03:20:38.800Z,59.01
2023-02-15T03:23:30.236Z,58.85
2023-02-15T03:26:26.534Z,58.68
2023-02-15T03:29:17.550Z,58.49
2023-02-15T03:32:12.473Z,58.75
2023-02-15T03:35:03.177Z,58.71
2023-02-15T03:37:59.756Z,58.31
2023-02-15T03:41:07.822Z,59.09
2023-02-15T03:44:05.477Z,59.16
2023-02-15T03:47:01.965Z,59.08
2023-02-15T03:49:57.654Z,59.21
2023-02-15T03:52:46.989Z,59.09
2023-02-15T03:55:37.258Z,59.70
2023-02-15T03:58:43.561Z,59.14
2023-02-15T04:01:59.997Z,59.04
2023-02-15T04:04:50.477Z,59.37
2023-02-15T04:07:39.765Z,59.49
2023-02-15T04:10:46.582Z,59.50
2023-02-15T04:13:36.645Z,59.64
2023-02-15T04:16:25.068Z,60.24
2023-02-15T04:19:33.104Z,60.42
2023-02-15T04:22:39.867Z,61.12
2023-02-15T04:25:29.178Z,61.19
2023-02-15T04:28:18.434Z,61.25
2023-02-15T04:31:07.807Z,61.27
2023-02-15T04:33:57.047Z,60.98
2023-02-15T04:36:47.994Z,60.71
2023-02-15T04:39:37.257Z,60.77
2023-02-15T04:42:26.760Z,61.33
2023-02-15T04:45:16.065Z,60.79
2023-02-15T04:48:05.505Z,61.16
2023-02-15T04:50:54.708Z,61.20
2023-02-15T04:53:45.477Z,61.61
2023-02-15T04:56:35.971Z,61.19
2023-02-15T04:59:25.169Z,61.45
2023-02-15T05:02:14.728Z,62.61
2023-02-15T05:05:04.022Z,62.03
2023-02-15T05:07:53.310Z,62.85
2023-02-15T05:10:43.915Z,62.57
2023-02-15T05:13:33.163Z,65.46
2023-02-15T05:16:22.401Z,67.61
2023-02-15T05:19:11.609Z,67.74
2023-02-15T05:22:01.427Z,68.94
2023-02-15T05:25:08.310Z,70.03
2023-02-15T05:28:16.419Z,71.01
2023-02-15T05:31:09.437Z,73.14
2023-02-15T05:33:58.488Z,74.37
2023-02-15T05:36:47.655Z,74.30
2023-02-15T05:39:36.937Z,75.26
2023-02-15T05:42:26.294Z,75.06
2023-02-15T05:45:17.221Z,75.11
2023-02-15T05:48:06.566Z,76.34
2023-02-15T05:51:07.782Z,76.14
2023-02-15T05:53:57.147Z,76.99
2023-02-15T05:56:46.368Z,76.80
2023-02-15T05:59:35.560Z,76.35
2023-02-15T06:02:26.290Z,77.44
2023-02-15T06:05:15.673Z,77.07
2023-02-15T06:08:06.029Z,77.17
2023-02-15T06:10:55.318Z,75.77
2023-02-15T06:13:44.548Z,76.63
2023-02-15T06:16:33.843Z,76.16
2023-02-15T06:19:24.635Z,76.71
2023-02-15T06:22:15.098Z,76.87
2023-02-15T06:25:04.610Z,78.26
2023-02-15T06:27:53.966Z,78.31
2023-02-15T06:30:43.214Z,78.04
2023-02-15T06:33:34.840Z,78.40
2023-02-15T06:36:25.403Z,78.63
2023-02-15T06:39:14.653Z,79.03
2023-02-15T06:42:03.981Z,79.77
2023-02-15T06:44:53.319Z,79.45
2023-02-15T06:47:42.548Z,79.40
2023-02-15T06:50:32.405Z,80.42
2023-02-15T06:53:23.136Z,80.43
2023-02-15T06:56:14.175Z,80.24
2023-02-15T06:59:03.608Z,80.24
2023-02-15T07:01:53.020Z,80.20
2023-02-15T07:04:42.474Z,80.18
2023-02-15T07:07:31.711Z,80.22
2023-02-15T07:10:22.330Z,79.65
2023-02-15T07:13:10.518Z,80.56
2023-02-15T07:15:59.975Z,80.44
2023-02-15T07:18:49.420Z,80.87
2023-02-15T07:21:38.928Z,80.46
2023-02-15T07:24:28.802Z,80.39
2023-02-15T07:27:19.428Z,80.00
2023-02-15T07:30:12.063Z,79.58
2023-02-15T07:33:19.119Z,80.59
2023-02-15T07:36:10.684Z,80.71
2023-02-15T07:39:00.501Z,80.08
2023-02-15T07:41:49.777Z,79.69
2023-02-15T07:44:42.168Z,80.01
2023-02-15T07:47:31.468Z,79.97
2023-02-15T07:50:20.916Z,80.20
2023-02-15T07:53:10.202Z,79.75
2023-02-15T07:56:01.927Z,79.03
2023-02-15T07:58:53.989Z,79.18
2023-02-15T08:01:44.677Z,79.91
2023-02-15T08:04:33.916Z,80.27
2023-02-15T08:07:23.088Z,80.17
2023-02-15T08:10:32.534Z,80.13
2023-02-15T08:13:22.006Z,80.09
2023-02-15T08:16:13.860Z,79.61
2023-02-15T08:19:08.189Z,79.99
2023-02-15T08:22:00.194Z,79.60
2023-02-15T08:24:49.379Z,79.80
2023-02-15T08:27:38.651Z,78.77
2023-02-15T08:30:27.892Z,78.71
2023-02-15T08:33:19.069Z,78.71
2023-02-15T08:36:14.026Z,78.97
2023-02-15T08:39:06.639Z,79.25
2023-02-15T08:41:55.857Z,79.31
2023-02-15T08:44:45.716Z,79.52
2023-02-15T08:47:35.012Z,79.05
2023-02-15T08:50:24.273Z,78.58
2023-02-15T08:53:16.850Z,78.62
2023-02-15T08:56:07.204Z,78.36
2023-02-15T08:58:57.960Z,77.92
2023-02-15T09:01:48.595Z,77.91
2023-02-15T09:04:38.112Z,77.70
2023-02-15T09:07:27.307Z,77.46
2023-02-15T09:10:18.459Z,77.36
2023-02-15T09:13:07.747Z,77.09
2023-02-15T09:16:02.638Z,76.95
2023-02-15T09:18:52.605Z,76.79
2023-02-15T09:21:41.941Z,76.72
2023-02-15T09:24:35.349Z,76.41
2023-02-15T09:27:25.946Z,76.50
2023-02-15T09:30:16.244Z,76.29
2023-02-15T09:33:05.655Z,76.56
2023-02-15T09:35:54.818Z,76.80
2023-02-15T09:38:44.298Z,76.75
2023-02-15T09:42:00.248Z,76.55
2023-02-15T09:45:23.928Z,76.37
2023-02-15T09:48:40.717Z,76.45
2023-02-15T09:52:00.209Z,76.21
2023-02-15T09:55:06.649Z,76.01
2023-02-15T09:58:06.404Z,75.89
2023-02-15T10:01:07.307Z,75.67
2023-02-15T10:04:20.418Z,75.15
2023-02-15T10:07:25.129Z,75.01
2023-02-15T10:10:29.719Z,74.51
2023-02-15T10:13:33.186Z,74.34
2023-02-15T10:16:36.435Z,74.32
2023-02-15T10:19:37.681Z,73.43
2023-02-15T10:22:36.876Z,73.42
2023-02-15T10:25:37.213Z,73.31
2023-02-15T10:28:36.018Z,73.40
2023-02-15T10:31:36.015Z,72.58
2023-02-15T10:34:38.051Z,72.25
2023-02-15T10:37:54.625Z,71.78
2023-02-15T10:41:00.848Z,71.40
2023-02-15T10:44:15.385Z,71.33
2023-02-15T10:47:39.141Z,70.16
2023-02-15T10:50:47.412Z,69.64
2023-02-15T10:54:15.022Z,69.46
2023-02-15T10:57:14.397Z,68.97
2023-02-15T11:00:12.359Z,68.54
2023-02-15T11:03:31.848Z,68.04
2023-02-15T11:06:24.347Z,68.11
2023-02-15T11:09:19.238Z,68.05
2023-02-15T11:12:15.236Z,68.08
2023-02-15T11:15:15.978Z,67.51
2023-02-15T11:18:14.126Z,67.76
2023-02-15T11:21:12.021Z,68.27
2023-02-15T11:24:02.797Z,68.32
2023-02-15T11:26:57.841Z,68.38
2023-02-15T11:29:59.639Z,68.36
2023-02-15T11:32:55.481Z,67.92
2023-02-15T11:35:53.181Z,68.41
2023-02-15T11:38:44.804Z,68.45
2023-02-15T11:41:39.952Z,68.52
2023-02-15T11:44:34.948Z,68.30
2023-02-15T11:47:24.167Z,68.15
2023-02-15T11:50:17.702Z,67.91
2023-02-15T11:53:13.958Z,67.61
2023-02-15T11:56:07.104Z,67.22
2023-02-15T11:59:02.193Z,66.76
2023-02-15T12:01:52.454Z,67.19
2023-02-15T12:04:46.359Z,66.98
2023-02-15T12:07:40.413Z,66.13
2023-02-15T12:10:36.209Z,66.40
2023-02-15T12:13:27.202Z,66.05
2023-02-15T12:16:16.512Z,65.37
2023-02-15T12:19:08.070Z,65.96
2023-02-15T12:21:58.643Z,65.59
2023-02-15T12:24:50.204Z,65.06
2023-02-15T12:27:46.047Z,63.89
2023-02-15T12:30:39.187Z,63.81
2023-02-15T12:33:32.427Z,62.55
2023-02-15T12:36:24.773Z,62.02
2023-02-15T12:39:26.683Z,60.61
2023-02-15T12:42:20.520Z,61.55
2023-02-15T12:45:27.484Z,60.60
2023-02-15T12:48:21.941Z,60.74
2023-02-15T12:51:15.959Z,60.83
2023-02-15T12:54:25.326Z,61.18
2023-02-15T12:57:33.497Z,60.53
2023-02-15T13:00:33.074Z,60.18
2023-02-15T13:03:26.337Z,60.21
2023-02-15T13:06:15.748Z,59.90
2023-02-15T13:09:16.525Z,59.74
2023-02-15T13:12:19.986Z,59.84
2023-02-15T13:15:35.160Z,58.61
2023-02-15T13:18:34.020Z,58.15
2023-02-15T13:21:30.330Z,58.00
2023-02-15T13:24:26.133Z,58.01
2023-02-15T13:27:20.001Z,57.77
2023-02-15T13:30:49.935Z,57.42
2023-02-15T13:33:46.476Z,57.39
2023-02-15T13:36:44.470Z,57.50
2023-02-15T13:39:42.580Z,56.76
2023-02-15T13:42:38.529Z,56.72
2023-02-15T13:45:41.955Z,55.80
2023-02-15T13:48:51.012Z,55.58
2023-02-15T13:51:48.624Z,53.95
2023-02-15T13:55:08.965Z,54.03
2023-02-15T13:58:16.682Z,54.17
2023-02-15T14:01:13.751Z,54.01
2023-02-15T14:04:36.205Z,54.65
2023-02-15T14:07:50.879Z,54.18
2023-02-15T14:10:59.778Z,54.33
2023-02-15T14:14:24.297Z,54.13
2023-02-15T14:17:25.764Z,53.55
2023-02-15T14:20:28.273Z,53.07
2023-02-15T14:23:31.167Z,52.54
2023-02-15T14:26:35.480Z,52.68
2023-02-15T14:29:47.691Z,52.94
2023-02-15T14:32:44.514Z,53.35
2023-02-15T14:35:36.455Z,53.71
2023-02-15T14:38:49.316Z,53.13
2023-02-15T14:41:45.705Z,53.30
2023-02-15T14:44:42.445Z,53.07
2023-02-15T14:47:37.732Z,52.87
2023-02-15T14:50:45.999Z,53.02
2023-02-15T14:53:41.342Z,53.14
2023-02-15T14:56:30.956Z,53.20
2023-02-15T14:59:23.467Z,52.82
2023-02-15T15:02:19.746Z,53.17
2023-02-15T15:05:16.621Z,53.16
2023-02-15T15:08:08.359Z,52.91
2023-02-15T15:10:57.779Z,52.60
2023-02-15T15:14:05.435Z,51.83
2023-02-15T15:16:55.020Z,52.05
2023-02-15T15:20:02.016Z,51.88
2023-02-15T15:22:51.332Z,52.42
2023-02-15T15:25:47.535Z,52.51
2023-02-15T15:29:02.573Z,52.73
2023-02-15T15:31:56.676Z,52.83
2023-02-15T15:35:19.719Z,53.51
2023-02-15T15:38:37.031Z,54.38
2023-02-15T15:41:42.782Z,54.46
2023-02-15T15:45:05.737Z,54.31
2023-02-15T15:48:30.988Z,55.25
2023-02-15T15:51:27.843Z,55.62
2023-02-15T15:54:19.979Z,55.41
2023-02-15T15:57:21.621Z,55.69
2023-02-15T16:00:37.584Z,55.28
2023-02-15T16:03:29.380Z,55.53
2023-02-15T16:06:34.905Z,55.13
2023-02-15T16:09:26.869Z,55.38
2023-02-15T16:12:23.442Z,55.45
2023-02-15T16:15:20.025Z,55.38
2023-02-15T16:18:16.231Z,55.45
2023-02-15T16:21:06.026Z,55.24
2023-02-15T16:24:24.507Z,55.37
2023-02-15T16:27:35.996Z,55.28
2023-02-15T16:30:30.978Z,55.48
2023-02-15T16:33:21.419Z,55.76
2023-02-15T16:36:24.364Z,55.70
2023-02-15T16:39:21.844Z,55.74
2023-02-15T16:42:12.411Z,56.00
2023-02-15T16:45:09.411Z,56.11
2023-02-15T16:48:01.300Z,56.04
2023-02-15T16:50:55.339Z,55.99
2023-02-15T16:53:49.793Z,56.31
2023-02-15T16:56:40.434Z,56.58
2023-02-15T16:59:37.341Z,56.54
2023-02-15T17:02:54.404Z,56.20
2023-02-15T17:05:47.174Z,56.42
2023-02-15T17:08:43.846Z,55.92
2023-02-15T17:11:38.723Z,56.13
2023-02-15T17:14:34.095Z,55.70
2023-02-15T17:17:23.488Z,56.29
2023-02-15T17:20:18.954Z,56.37
2023-02-15T17:23:08.720Z,56.10
2023-02-15T17:25:58.535Z,56.11
2023-02-15T17:28:51.632Z,56.69
2023-02-15T17:31:41.395Z,56.15
2023-02-15T17:35:00.932Z,56.11
2023-02-15T17:37:52.741Z,56.06
2023-02-15T17:40:42.029Z,55.87
2023-02-15T17:43:31.314Z,55.77
2023-02-15T17:46:23.868Z,56.00
2023-02-15T17:49:24.949Z,55.99
2023-02-15T17:52:15.641Z,55.92
2023-02-15T17:55:33.597Z,55.60
2023-02-15T17:58:24.018Z,55.40
2023-02-15T18:01:37.686Z,55.28
2023-02-15T18:04:44.773Z,55.04
2023-02-15T18:07:51.222Z,54.82
2023-02-15T18:10:59.312Z,54.85
2023-02-15T18:13:48.929Z,55.02
2023-02-15T18:16:42.722Z,55.16
2023-02-15T18:19:32.861Z,55.71
2023-02-15T18:22:22.850Z,56.00
2023-02-15T18:25:15.126Z,55.86
2023-02-15T18:28:06.572Z,56.75
2023-02-15T18:30:55.840Z,57.46
2023-02-15T18:33:49.340Z,57.73
2023-02-15T18:36:46.351Z,58.61
2023-02-15T18:39:41.178Z,58.85
2023-02-15T18:42:34.360Z,59.23
2023-02-15T18:45:28.767Z,59.56
2023-02-15T18:48:18.012Z,59.27
2023-02-15T18:51:16.461Z,59.83
2023-02-15T18:54:05.869Z,60.21
2023-02-15T18:56:57.474Z,61.13
2023-02-15T18:59:47.232Z,61.53
2023-02-15T19:02:37.843Z,61.46
2023-02-15T19:05:28.857Z,62.24
2023-02-15T19:08:24.909Z,62.20
2023-02-15T19:11:20.230Z,62.88
2023-02-15T19:14:24.062Z,62.81
2023-02-15T19:17:18.083Z,62.91
2023-02-15T19:20:16.889Z,63.48
2023-02-15T19:23:13.142Z,64.20
2023-02-15T19:26:02.843Z,63.66
2023-02-15T19:28:52.963Z,63.57
2023-02-15T19:31:42.412Z,62.91
2023-02-15T19:34:31.793Z,62.84
2023-02-15T19:37:27.794Z,62.61
2023-02-15T19:40:22.679Z,62.42
2023-02-15T19:43:18.563Z,62.64
2023-02-15T19:46:07.946Z,62.35
2023-02-15T19:48:57.195Z,62.31
2023-02-15T19:51:47.688Z,62.54
2023-02-15T19:54:38.489Z,62.96
2023-02-15T19:57:29.061Z,62.69
2023-02-15T20:00:22.602Z,63.14
2023-02-15T20:03:12.239Z,62.46
2023-02-15T20:06:02.556Z,62.65
2023-02-15T20:08:51.852Z,63.13
2023-02-15T20:11:42.469Z,62.93
2023-02-15T20:14:32.113Z,62.91
2023-02-15T20:17:21.583Z,63.01
2023-02-15T20:20:13.385Z,63.24
2023-02-15T20:23:03.129Z,63.12
2023-02-15T20:25:53.094Z,63.70
2023-02-15T20:28:43.981Z,63.85
2023-02-15T20:31:33.489Z,64.10
2023-02-15T20:34:22.873Z,64.09
2023-02-15T20:37:23.279Z,64.19
2023-02-15T20:40:18.750Z,63.92
2023-02-15T20:43:16.189Z,64.10
2023-02-15T20:46:08.092Z,64.11
2023-02-15T20:48:57.680Z,64.05
2023-02-15T20:51:48.322Z,64.40
2023-02-15T20:54:38.231Z,64.26
2023-02-15T20:57:27.573Z,64.19
2023-02-15T21:00:20.738Z,64.52
2023-02-15T21:03:14.386Z,64.60
2023-02-15T21:06:03.393Z,65.04
2023-02-15T21:08:52.718Z,64.57
2023-02-15T21:11:42.230Z,64.54
2023-02-15T21:14:32.027Z,64.87
2023-02-15T21:17:21.368Z,65.33
2023-02-15T21:20:15.590Z,64.79
2023-02-15T21:23:07.284Z,66.09
2023-02-15T21:25:57.535Z,65.70
2023-02-15T21:28:46.995Z,65.61
2023-02-15T21:31:36.331Z,65.72
2023-02-15T21:34:26.105Z,65.92
2023-02-15T21:37:32.727Z,67.24
2023-02-15T21:40:24.617Z,66.62
2023-02-15T21:43:33.553Z,67.13
2023-02-15T21:46:39.929Z,67.44
2023-02-15T21:49:29.263Z,68.17
2023-02-15T21:52:23.508Z,68.38
2023-02-15T21:55:16.074Z,69.06
2023-02-15T21:58:05.960Z,68.62
2023-02-15T22:00:56.404Z,68.92
2023-02-15T22:03:45.699Z,68.79
2023-02-15T22:06:34.928Z,69.14
2023-02-15T22:09:28.162Z,69.08
2023-02-15T22:12:19.220Z,69.26
2023-02-15T22:15:19.694Z,68.92
2023-02-15T22:18:19.560Z,69.14
2023-02-15T22:21:11.014Z,69.41
2023-02-15T22:24:00.369Z,69.46
2023-02-15T22:26:51.111Z,69.51
2023-02-15T22:29:40.516Z,69.57
2023-02-15T22:32:29.894Z,69.82
2023-02-15T22:35:23.820Z,70.20
2023-02-15T22:38:13.094Z,70.00
2023-02-15T22:41:06.252Z,70.34
2023-02-15T22:43:58.842Z,70.83
2023-02-15T22:46:48.089Z,70.95
2023-02-15T22:49:37.364Z,71.36
2023-02-15T22:52:27.493Z,72.64
2023-02-15T22:55:18.338Z,73.09
2023-02-15T22:58:08.005Z,73.19
2023-02-15T23:01:00.091Z,74.07
2023-02-15T23:03:49.575Z,75.23
2023-02-15T23:06:39.062Z,76.53
2023-02-15T23:09:28.540Z,77.13
2023-02-15T23:12:27.339Z,77.73
2023-02-15T23:15:16.989Z,77.71
2023-02-15T23:18:19.924Z,78.06
2023-02-15T23:21:20.308Z,78.05
2023-02-15T23:24:20.507Z,78.13
2023-02-15T23:27:35.156Z,77.99
2023-02-15T23:30:24.928Z,78.63
2023-02-15T23:33:16.101Z,79.43
2023-02-15T23:36:06.325Z,80.01
2023-02-15T23:38:58.296Z,80.49
2023-02-15T23:41:46.598Z,80.48
2023-02-15T23:44:36.050Z,80.07
2023-02-15T23:47:51.329Z,80.20
2023-02-15T23:50:42.286Z,80.75
2023-02-15T23:53:32.269Z,80.31
2023-02-15T23:56:21.632Z,80.42
2023-02-15T23:59:17.869Z,80.30
